Time;durP1;ratioP1;P1;durP2;ratioP2;P2;SDS_P1;SDS_P2;PMS_P1;PMS_P2;Temp;Humidity;BMP_temperature;BMP_pressure;BME280_temperature;BME280_humidity;BME280_pressure;Samples;Min_cycle;Max_cycle;Signal;HPM_P1;HPM_P2
2023/07/02 00:00:38;;;;;;;9.75;3.67;;;19.50;98.70;;;;;;5092564;28;20028;-77
2023/07/02 00:03:04;;;;;;;13.43;3.83;;;19.40;98.90;;;;;;5092313;28;20040;-78
2023/07/02 00:05:30;;;;;;;11.10;3.35;;;19.40;99.00;;;;;;5094357;28;20104;-77
2023/07/02 00:07:56;;;;;;;11.40;3.58;;;19.40;99.10;;;;;;5095225;28;20036;-78
2023/07/02 00:10:21;;;;;;;12.02;4.07;;;19.30;99.30;;;;;;5095790;28;20028;-77
2023/07/02 00:12:47;;;;;;;15.68;5.15;;;19.30;99.40;;;;;;5096010;28;20436;-78
2023/07/02 00:15:13;;;;;;;13.52;4.80;;;19.20;99.70;;;;;;5095471;28;20027;-79
2023/07/02 00:17:42;;;;;;;12.55;4.60;;;19.20;99.80;;;;;;5095678;28;20028;-79
2023/07/02 00:20:14;;;;;;;15.10;5.13;;;19.20;99.90;;;;;;5095614;28;20172;-79
2023/07/02 00:22:45;;;;;;;13.13;5.78;;;19.10;99.90;;;;;;5096102;28;20337;-79
2023/07/02 00:25:12;;;;;;;13.50;4.65;;;19.10;99.90;;;;;;5095743;28;20031;-79
2023/07/02 00:27:38;;;;;;;16.33;5.10;;;19.10;99.90;;;;;;5095896;28;20483;-79
2023/07/02 00:30:04;;;;;;;15.68;5.13;;;19.10;99.90;;;;;;5095757;28;20028;-79
2023/07/02 00:32:29;;;;;;;17.10;6.53;;;19.10;99.90;;;;;;5096004;28;20032;-80
2023/07/02 00:34:55;;;;;;;13.77;5.30;;;19.10;99.90;;;;;;5095693;28;20024;-79
2023/07/02 00:37:21;;;;;;;18.05;6.53;;;19.20;99.90;;;;;;5095418;28;20410;-78
2023/07/02 00:39:46;;;;;;;18.42;7.10;;;19.20;99.90;;;;;;5095475;28;20028;-79
2023/07/02 00:42:13;;;;;;;15.98;6.43;;;19.10;99.90;;;;;;5095820;28;20052;-79
2023/07/02 00:44:40;;;;;;;18.00;6.82;;;19.10;99.90;;;;;;5094666;28;20028;-78
2023/07/02 00:47:10;;;;;;;17.45;6.30;;;19.10;99.90;;;;;;5095637;28;20020;-79
2023/07/02 00:49:36;;;;;;;14.88;5.82;;;18.90;99.90;;;;;;5096887;28;20048;-81
2023/07/02 00:52:02;;;;;;;12.23;4.80;;;18.90;99.80;;;;;;5094733;28;20514;-80
2023/07/02 00:54:31;;;;;;;15.43;6.13;;;18.80;99.80;;;;;;5095578;28;20047;-80
2023/07/02 00:57:02;;;;;;;10.63;4.88;;;18.80;99.70;;;;;;5096240;28;20331;-79
2023/07/02 00:59:29;;;;;;;14.88;5.72;;;18.80;99.90;;;;;;5095378;28;20048;-79
2023/07/02 01:01:56;;;;;;;15.55;5.50;;;18.80;99.20;;;;;;5095050;28;20035;-79
2023/07/02 01:04:27;;;;;;;10.05;5.60;;;18.70;98.70;;;;;;5095824;28;20032;-79
2023/07/02 01:06:57;;;;;;;19.30;6.32;;;18.70;98.80;;;;;;5094692;28;20094;-80
2023/07/02 01:09:27;;;;;;;19.77;6.07;;;18.60;98.40;;;;;;5095421;28;20471;-79
2023/07/02 01:12:06;;;;;;;14.05;6.25;;;18.60;98.20;;;;;;5095062;28;20028;-78
2023/07/02 01:14:36;;;;;;;13.60;5.90;;;18.60;98.30;;;;;;5094398;28;20028;-79
2023/07/02 01:17:05;;;;;;;13.20;4.72;;;18.50;98.00;;;;;;5095423;28;20020;-79
2023/07/02 01:19:42;;;;;;;14.32;4.65;;;18.40;98.20;;;;;;5094631;28;20028;-80
2023/07/02 01:22:09;;;;;;;9.05;4.30;;;18.40;98.40;;;;;;5094491;28;20161;-80
2023/07/02 01:24:36;;;;;;;10.60;4.57;;;18.40;98.70;;;;;;5094428;28;20051;-80
2023/07/02 01:27:02;;;;;;;11.27;3.75;;;18.50;98.80;;;;;;5095128;28;20056;-80
2023/07/02 01:29:30;;;;;;;11.45;4.80;;;18.50;98.80;;;;;;5076578;28;20117;-79
2023/07/02 01:31:56;;;;;;;12.93;5.57;;;18.60;98.80;;;;;;5094350;28;20023;-78
2023/07/02 01:34:22;;;;;;;17.52;5.55;;;18.60;98.40;;;;;;5092904;28;20048;-79
2023/07/02 01:36:48;;;;;;;12.88;5.25;;;18.50;98.30;;;;;;5094904;28;20066;-79
2023/07/02 01:39:13;;;;;;;12.45;5.50;;;18.40;98.30;;;;;;5094540;28;20027;-80
2023/07/02 01:41:54;;;;;;;12.52;5.32;;;18.30;98.30;;;;;;5093956;28;20496;-80
2023/07/02 01:44:21;;;;;;;11.55;4.65;;;18.30;98.40;;;;;;5095125;28;20028;-80
2023/07/02 01:46:48;;;;;;;14.10;5.47;;;18.20;98.50;;;;;;5094871;28;20521;-80
2023/07/02 01:49:18;;;;;;;12.63;5.75;;;18.20;98.70;;;;;;5094217;28;20107;-79
2023/07/02 01:51:51;;;;;;;14.23;4.53;;;18.20;98.70;;;;;;5093742;28;20024;-79
2023/07/02 01:54:17;;;;;;;;;;;18.20;98.50;;;;;;5095049;28;20032;-80
2023/07/02 01:56:43;;;;;;;8.35;4.07;;;18.10;98.40;;;;;;5095527;28;19922;-80
2023/07/02 01:59:09;;;;;;;12.32;5.28;;;18.10;98.50;;;;;;5094552;28;20091;-80
2023/07/02 02:01:34;;;;;;;14.63;6.03;;;18.10;98.60;;;;;;5094496;28;20063;-80
2023/07/02 02:04:00;;;;;;;14.45;5.88;;;18.00;98.60;;;;;;5092658;28;20044;-79
2023/07/02 02:06:26;;;;;;;12.82;5.43;;;18.00;98.60;;;;;;5093172;28;20051;-79
2023/07/02 02:08:51;;;;;;;16.42;6.63;;;18.00;98.60;;;;;;5093690;28;20028;-79
2023/07/02 02:11:17;;;;;;;14.90;6.38;;;18.00;98.80;;;;;;5094083;28;20100;-80
2023/07/02 02:13:43;;;;;;;17.80;7.30;;;18.00;98.70;;;;;;5093411;28;20075;-79
2023/07/02 02:16:08;;;;;;;16.95;7.38;;;18.00;98.50;;;;;;5092488;28;20028;-79
2023/07/02 02:18:34;;;;;;;21.92;7.30;;;17.90;98.40;;;;;;5093438;28;20357;-79
2023/07/02 02:21:00;;;;;;;13.38;6.28;;;17.90;98.50;;;;;;5091938;28;20107;-78
2023/07/02 02:23:26;;;;;;;14.63;6.57;;;17.90;98.60;;;;;;5093177;28;20039;-79
2023/07/02 02:25:51;;;;;;;17.13;6.35;;;17.80;98.60;;;;;;5092512;28;20038;-78
2023/07/02 02:28:17;;;;;;;18.73;6.85;;;17.80;98.60;;;;;;5093150;28;20134;-79
2023/07/02 02:30:43;;;;;;;16.35;6.47;;;17.80;98.80;;;;;;5093466;28;20055;-79
2023/07/02 02:33:08;;;;;;;16.15;6.72;;;17.80;98.90;;;;;;5091970;28;20024;-79
2023/07/02 02:35:34;;;;;;;16.52;6.85;;;17.70;98.90;;;;;;5093068;28;20131;-79
2023/07/02 02:38:04;;;;;;;18.00;6.28;;;17.70;99.00;;;;;;5093138;28;20090;-79
2023/07/02 02:40:30;;;;;;;10.27;4.90;;;17.70;99.00;;;;;;5095186;28;20024;-80
2023/07/02 02:42:56;;;;;;;11.88;5.82;;;17.80;99.10;;;;;;5095202;28;20055;-79
2023/07/02 02:45:21;;;;;;;17.17;7.05;;;17.90;99.30;;;;;;5092162;28;20035;-79
2023/07/02 02:47:47;;;;;;;15.98;5.93;;;17.90;99.10;;;;;;5095593;28;20119;-80
2023/07/02 02:50:13;;;;;;;15.35;6.70;;;17.90;99.10;;;;;;5091924;28;20168;-80
2023/07/02 02:52:39;;;;;;;16.42;6.07;;;17.90;99.00;;;;;;5098328;28;20032;-80
2023/07/02 02:55:06;;;;;;;14.25;6.03;;;17.90;99.10;;;;;;5095850;28;20028;-80
2023/07/02 02:57:32;;;;;;;11.85;6.35;;;18.00;99.20;;;;;;5093167;28;20059;-80
2023/07/02 02:59:59;;;;;;;13.82;6.43;;;18.00;99.20;;;;;;5094134;28;20049;-80
2023/07/02 03:02:24;;;;;;;11.68;5.07;;;18.00;99.00;;;;;;5096557;28;20070;-80
2023/07/02 03:04:50;;;;;;;9.07;4.88;;;18.00;99.10;;;;;;5093848;28;20055;-80
2023/07/02 03:07:16;;;;;;;16.50;6.72;;;18.10;99.20;;;;;;5092353;28;20054;-79
2023/07/02 03:09:42;;;;;;;12.05;5.85;;;18.10;99.10;;;;;;5091362;28;20031;-80
2023/07/02 03:12:08;;;;;;;14.43;5.30;;;18.10;99.00;;;;;;5099865;28;20032;-81
2023/07/02 03:14:33;;;;;;;8.73;4.60;;;18.10;99.20;;;;;;5094290;28;20024;-80
2023/07/02 03:16:59;;;;;;;11.35;4.78;;;18.20;99.40;;;;;;5093813;28;20145;-80
2023/07/02 03:19:25;;;;;;;13.60;5.95;;;18.30;99.40;;;;;;5094733;28;20024;-79
2023/07/02 03:21:51;;;;;;;12.60;5.40;;;18.30;99.10;;;;;;5091333;28;20027;-79
2023/07/02 03:24:17;;;;;;;16.95;5.88;;;18.30;98.70;;;;;;5091999;28;20448;-78
2023/07/02 03:26:44;;;;;;;11.65;5.70;;;18.20;98.60;;;;;;5093557;28;20113;-80
2023/07/02 03:29:10;;;;;;;15.80;7.22;;;18.30;98.60;;;;;;5094438;28;20047;-80
2023/07/02 03:31:36;;;;;;;14.82;6.07;;;18.30;98.60;;;;;;5093526;28;20032;-79
2023/07/02 03:34:08;;;;;;;16.00;6.72;;;18.20;98.30;;;;;;5092532;28;20039;-79
2023/07/02 03:36:34;;;;;;;20.70;6.20;;;18.20;98.10;;;;;;5092971;28;20111;-80
2023/07/02 03:39:00;;;;;;;14.75;6.00;;;18.10;98.00;;;;;;5092853;28;20089;-79
2023/07/02 03:41:26;;;;;;;9.43;4.88;;;18.00;98.00;;;;;;5097045;28;20028;-79
2023/07/02 03:43:51;;;;;;;12.18;5.70;;;17.90;98.20;;;;;;5098101;28;20506;-79
2023/07/02 03:46:17;;;;;;;13.13;6.50;;;18.00;98.40;;;;;;5096072;28;20036;-79
2023/07/02 03:48:43;;;;;;;13.10;5.90;;;18.00;98.10;;;;;;5097501;28;20020;-80
2023/07/02 03:51:08;;;;;;;14.82;6.35;;;17.90;98.00;;;;;;5098097;28;20036;-79
2023/07/02 03:53:34;;;;;;;15.38;6.38;;;17.90;98.20;;;;;;5099282;28;20053;-81
2023/07/02 03:55:59;;;;;;;15.63;6.28;;;17.80;98.40;;;;;;5104176;28;20035;-79
2023/07/02 03:58:26;;;;;;;12.73;5.22;;;17.80;98.20;;;;;;5102727;28;20114;-80
2023/07/02 04:00:51;;;;;;;10.63;5.75;;;17.80;98.40;;;;;;5104280;28;20107;-79
2023/07/02 04:03:17;;;;;;;17.65;7.13;;;17.90;98.60;;;;;;5098398;28;20062;-79
2023/07/02 04:05:44;;;;;;;14.75;5.97;;;17.90;98.20;;;;;;5097379;28;20204;-80
2023/07/02 04:08:09;;;;;;;17.75;6.60;;;17.80;98.10;;;;;;5096109;28;20031;-79
2023/07/02 04:10:35;;;;;;;16.73;6.35;;;17.80;98.10;;;;;;5097707;28;20024;-79
2023/07/02 04:13:01;;;;;;;18.23;6.57;;;17.80;98.10;;;;;;5099929;28;20044;-79
2023/07/02 04:15:27;;;;;;;16.48;6.20;;;17.80;98.10;;;;;;5095980;28;20056;-80
2023/07/02 04:17:52;;;;;;;13.60;5.88;;;17.80;98.00;;;;;;5095760;28;20024;-80
2023/07/02 04:20:19;;;;;;;16.02;6.28;;;17.70;98.10;;;;;;5094104;28;20024;-79
2023/07/02 04:22:45;;;;;;;17.42;5.72;;;17.80;98.00;;;;;;5095102;28;20485;-79
2023/07/02 04:25:15;;;;;;;19.17;6.93;;;17.70;97.90;;;;;;5095588;28;20556;-79
2023/07/02 04:27:44;;;;;;;18.02;6.88;;;17.70;97.80;;;;;;5095863;28;20077;-79
2023/07/02 04:30:10;;;;;;;17.77;6.57;;;17.70;97.80;;;;;;5095607;28;20028;-79
2023/07/02 04:32:39;;;;;;;19.33;6.55;;;17.60;97.80;;;;;;5094431;28;20467;-79
2023/07/02 04:35:07;;;;;;;17.17;6.60;;;17.50;97.60;;;;;;5094284;28;20024;-79
2023/07/02 04:37:33;;;;;;;17.90;6.93;;;17.50;97.60;;;;;;5095382;28;20039;-79
2023/07/02 04:39:59;;;;;;;19.50;7.90;;;17.50;97.50;;;;;;5095610;28;20024;-79
2023/07/02 04:42:31;;;;;;;17.15;6.50;;;17.50;97.50;;;;;;5094955;28;20083;-80
2023/07/02 04:45:02;;;;;;;17.20;6.70;;;17.40;97.40;;;;;;5095508;28;20028;-79
2023/07/02 04:47:28;;;;;;;18.60;6.85;;;17.30;97.30;;;;;;5096331;28;20047;-80
2023/07/02 04:49:54;;;;;;;16.27;5.97;;;17.20;97.50;;;;;;5095436;28;20103;-79
2023/07/02 04:52:19;;;;;;;20.60;7.47;;;17.30;97.50;;;;;;5093179;28;20055;-79
2023/07/02 04:54:45;;;;;;;19.52;7.05;;;17.30;97.40;;;;;;5095012;28;20103;-79
2023/07/02 04:57:11;;;;;;;21.70;6.97;;;17.30;97.40;;;;;;5093780;28;20103;-80
2023/07/02 04:59:37;;;;;;;21.60;7.15;;;17.20;97.40;;;;;;5093840;28;20028;-80
2023/07/02 05:02:02;;;;;;;17.20;6.53;;;17.20;97.50;;;;;;5094868;28;20349;-80
2023/07/02 05:04:28;;;;;;;18.60;6.68;;;17.20;97.70;;;;;;5095014;28;20367;-80
2023/07/02 05:06:53;;;;;;;18.65;7.40;;;17.20;97.80;;;;;;5094637;28;20039;-79
2023/07/02 05:09:19;;;;;;;20.65;7.47;;;17.20;97.80;;;;;;5094018;28;20024;-80
2023/07/02 05:11:45;;;;;;;20.08;7.70;;;17.20;97.80;;;;;;5094003;28;20032;-80
2023/07/02 05:14:10;;;;;;;18.00;6.47;;;17.20;97.90;;;;;;5094959;28;20436;-79
2023/07/02 05:16:36;;;;;;;20.27;6.95;;;17.20;97.90;;;;;;5094951;28;20122;-79
2023/07/02 05:19:02;;;;;;;18.60;7.22;;;17.20;97.70;;;;;;5094518;28;20043;-79
2023/07/02 05:21:27;;;;;;;17.80;6.82;;;17.20;97.50;;;;;;5093969;28;20438;-79
2023/07/02 05:23:53;;;;;;;20.17;6.93;;;17.20;97.40;;;;;;5094350;28;20024;-80
2023/07/02 05:26:18;;;;;;;17.70;7.57;;;17.10;97.30;;;;;;5096011;28;20078;-78
2023/07/02 05:28:44;;;;;;;21.38;7.30;;;17.20;97.10;;;;;;5093843;28;20436;-80
2023/07/02 05:31:10;;;;;;;21.88;6.85;;;17.20;97.00;;;;;;5094349;28;20042;-80
2023/07/02 05:33:36;;;;;;;24.77;7.38;;;17.20;97.00;;;;;;5093337;28;20404;-80
2023/07/02 05:36:01;;;;;;;19.35;6.78;;;17.10;96.80;;;;;;5093304;28;20127;-80
2023/07/02 05:38:27;;;;;;;27.15;7.88;;;17.10;96.80;;;;;;5095372;28;20093;-80
2023/07/02 05:40:52;;;;;;;24.52;7.38;;;17.10;96.60;;;;;;5093130;28;20028;-79
2023/07/02 05:43:18;;;;;;;24.92;8.02;;;17.10;96.70;;;;;;5092357;28;20098;-79
2023/07/02 05:45:44;;;;;;;26.05;7.68;;;17.20;96.70;;;;;;5094059;28;20027;-79
2023/07/02 05:48:09;;;;;;;24.30;7.90;;;17.10;96.40;;;;;;5094312;28;20024;-79
2023/07/02 05:50:35;;;;;;;21.40;7.63;;;17.20;96.40;;;;;;5094585;28;20135;-79
2023/07/02 05:53:01;;;;;;;26.33;8.25;;;17.20;96.10;;;;;;5093754;28;20032;-79
2023/07/02 05:55:26;;;;;;;19.73;6.97;;;17.20;96.20;;;;;;5094143;28;20024;-79
2023/07/02 05:57:52;;;;;;;18.90;8.02;;;17.20;96.20;;;;;;5093387;28;20447;-79
2023/07/02 06:00:18;;;;;;;19.45;6.68;;;17.30;96.10;;;;;;5094058;28;20090;-79
2023/07/02 06:02:46;;;;;;;28.63;7.82;;;17.20;95.60;;;;;;5093336;28;20039;-79
2023/07/02 06:05:12;;;;;;;23.02;7.20;;;17.30;95.70;;;;;;5094083;28;20051;-80
2023/07/02 06:07:37;;;;;;;26.13;7.63;;;17.30;95.40;;;;;;5094976;28;20055;-80
2023/07/02 06:10:03;;;;;;;24.58;8.30;;;17.30;95.60;;;;;;5094882;28;20024;-80
2023/07/02 06:12:29;;;;;;;22.58;7.00;;;17.40;95.40;;;;;;5097040;28;20032;-80
2023/07/02 06:14:54;;;;;;;25.27;7.47;;;17.40;95.40;;;;;;5093825;28;20030;-79
2023/07/02 06:17:22;;;;;;;23.45;7.38;;;17.50;95.20;;;;;;5093315;28;20024;-79
2023/07/02 06:19:48;;;;;;;22.20;6.78;;;17.50;95.10;;;;;;5093539;28;20479;-78
2023/07/02 06:22:13;;;;;;;22.42;7.22;;;17.50;94.60;;;;;;5091907;28;20032;-79
2023/07/02 06:24:39;;;;;;;23.83;6.80;;;17.40;94.40;;;;;;5093898;28;20032;-80
2023/07/02 06:27:05;;;;;;;19.95;6.80;;;17.50;94.80;;;;;;5092146;28;20032;-78
2023/07/02 06:29:30;;;;;;;22.83;6.65;;;17.50;95.00;;;;;;5093787;28;20032;-81
2023/07/02 06:31:56;;;;;;;18.83;6.30;;;17.50;94.50;;;;;;5093381;28;20039;-80
2023/07/02 06:34:21;;;;;;;18.10;6.40;;;17.60;94.50;;;;;;5093716;28;20112;-80
2023/07/02 06:36:48;;;;;;;15.60;6.43;;;17.60;94.50;;;;;;5093474;28;20103;-80
2023/07/02 06:39:13;;;;;;;21.38;6.65;;;17.70;94.70;;;;;;5093442;28;20020;-80
2023/07/02 06:41:39;;;;;;;16.48;6.30;;;17.70;94.50;;;;;;5092958;28;20043;-79
2023/07/02 06:44:05;;;;;;;20.05;6.88;;;17.70;94.30;;;;;;5093453;28;20028;-80
2023/07/02 06:46:30;;;;;;;16.02;6.57;;;17.80;94.30;;;;;;5093343;28;20368;-79
2023/07/02 06:48:56;;;;;;;21.10;6.85;;;17.80;93.90;;;;;;5075021;28;20024;-79
2023/07/02 06:51:22;;;;;;;21.05;6.20;;;17.80;93.50;;;;;;5093001;28;20502;-78
2023/07/02 06:53:48;;;;;;;25.23;6.30;;;17.80;93.80;;;;;;5093423;28;20035;-78
2023/07/02 06:56:14;;;;;;;21.17;6.72;;;17.70;93.30;;;;;;5093400;28;20371;-78
2023/07/02 06:58:42;;;;;;;17.92;6.35;;;17.70;93.20;;;;;;5094465;28;20024;-79
2023/07/02 07:01:08;;;;;;;18.83;6.60;;;17.70;93.30;;;;;;5092929;28;20069;-80
2023/07/02 07:03:37;;;;;;;18.17;6.20;;;17.70;93.40;;;;;;5093438;28;20028;-79
2023/07/02 07:06:03;;;;;;;19.20;6.32;;;17.80;93.30;;;;;;5093126;28;20024;-79
2023/07/02 07:08:29;;;;;;;16.88;5.45;;;17.80;93.20;;;;;;5091541;28;20107;-78
2023/07/02 07:10:54;;;;;;;17.83;6.18;;;17.80;92.80;;;;;;5092812;28;20035;-78
2023/07/02 07:13:20;;;;;;;21.75;6.43;;;17.90;92.70;;;;;;5092967;28;20032;-78
2023/07/02 07:15:46;;;;;;;20.90;6.50;;;17.80;92.80;;;;;;5097001;28;20031;-78
2023/07/02 07:18:12;;;;;;;19.55;5.82;;;17.80;92.90;;;;;;5096667;28;20028;-79
2023/07/02 07:20:40;;;;;;;18.52;6.57;;;17.80;92.90;;;;;;5096895;28;20024;-77
2023/07/02 07:23:06;;;;;;;21.50;5.78;;;17.80;92.50;;;;;;5097497;28;20028;-78
2023/07/02 07:25:31;;;;;;;17.10;6.18;;;17.80;92.50;;;;;;5097033;28;20115;-78
2023/07/02 07:27:59;;;;;;;14.90;5.65;;;17.80;92.70;;;;;;5095230;28;20043;-77
2023/07/02 07:30:25;;;;;;;20.02;5.70;;;17.90;92.70;;;;;;5097435;28;20032;-79
2023/07/02 07:32:52;;;;;;;17.30;5.90;;;18.00;92.50;;;;;;5095035;28;20032;-79
2023/07/02 07:35:18;;;;;;;17.08;5.43;;;18.00;92.10;;;;;;5097467;28;20016;-79
2023/07/02 07:37:44;;;;;;;15.70;5.50;;;18.00;92.10;;;;;;5095816;28;20020;-80
2023/07/02 07:40:11;;;;;;;14.02;5.55;;;18.00;92.40;;;;;;5097110;28;20356;-80
2023/07/02 07:42:37;;;;;;;14.52;5.30;;;18.00;92.80;;;;;;5096293;28;20056;-81
2023/07/02 07:45:03;;;;;;;14.65;5.20;;;18.10;92.90;;;;;;5095302;28;20024;-79
2023/07/02 07:47:29;;;;;;;18.20;5.93;;;18.10;93.00;;;;;;5096570;28;20024;-81
2023/07/02 07:49:55;;;;;;;14.85;5.78;;;18.20;92.80;;;;;;5096643;28;20099;-81
2023/07/02 07:52:21;;;;;;;14.88;5.32;;;18.40;92.50;;;;;;5095902;28;20111;-78
2023/07/02 07:54:47;;;;;;;11.63;5.35;;;18.40;92.10;;;;;;5096391;28;20107;-80
2023/07/02 07:57:13;;;;;;;19.33;5.85;;;18.50;92.20;;;;;;5096490;28;20032;-78
2023/07/02 07:59:39;;;;;;;15.25;5.43;;;18.50;92.00;;;;;;5094849;28;20040;-81
2023/07/02 08:02:05;;;;;;;17.38;5.22;;;18.50;91.90;;;;;;5095170;28;20039;-83
2023/07/02 08:04:30;;;;;;;13.40;5.35;;;18.50;92.20;;;;;;5101162;28;20115;-79
2023/07/02 08:06:56;;;;;;;16.98;5.75;;;18.60;92.00;;;;;;5102284;28;20139;-79
2023/07/02 08:09:23;;;;;;;18.25;5.78;;;18.50;92.10;;;;;;5106552;28;20063;-79
2023/07/02 08:11:49;;;;;;;13.80;5.32;;;18.50;92.10;;;;;;5101991;28;20044;-79
2023/07/02 08:14:18;;;;;;;20.40;6.18;;;18.50;92.00;;;;;;5100037;28;20131;-76
2023/07/02 08:16:44;;;;;;;13.00;4.80;;;18.50;91.90;;;;;;5099190;28;20028;-77
2023/07/02 08:19:10;;;;;;;15.32;4.90;;;18.50;91.80;;;;;;5106964;28;20081;-79
2023/07/02 08:21:35;;;;;;;15.98;5.53;;;18.60;92.00;;;;;;5110677;28;20044;-78
2023/07/02 08:24:03;;;;;;;13.73;4.93;;;18.80;91.60;;;;;;5109131;28;20036;-79
2023/07/02 08:26:30;;;;;;;14.50;4.88;;;18.80;89.40;;;;;;5108826;28;20696;-77
2023/07/02 08:28:56;;;;;;;14.18;4.97;;;18.80;88.20;;;;;;5108409;28;20402;-77
2023/07/02 08:31:22;;;;;;;12.93;4.68;;;18.90;87.60;;;;;;5109014;28;20040;-78
2023/07/02 08:33:47;;;;;;;10.82;4.35;;;18.90;87.30;;;;;;5110518;28;20115;-77
2023/07/02 08:36:16;;;;;;;12.57;4.90;;;19.10;87.80;;;;;;5108611;28;20032;-77
2023/07/02 08:38:43;;;;;;;11.95;4.85;;;19.10;85.70;;;;;;5106400;28;20042;-77
2023/07/02 08:41:09;;;;;;;12.18;4.78;;;19.10;86.50;;;;;;5104631;28;20035;-76
2023/07/02 08:43:36;;;;;;;11.27;4.55;;;19.00;86.00;;;;;;5106583;28;20432;-77
2023/07/02 08:46:02;;;;;;;12.30;4.95;;;18.90;87.10;;;;;;5100955;28;20028;-77
2023/07/02 08:48:29;;;;;;;14.77;4.93;;;18.90;87.10;;;;;;5108981;28;20133;-77
2023/07/02 08:50:55;;;;;;;11.05;3.83;;;18.90;86.90;;;;;;5100634;28;20032;-72
2023/07/02 08:53:29;;;;;;;17.15;5.68;;;18.90;85.50;;;;;;5099523;28;20468;-77
2023/07/02 08:55:57;;;;;;;20.00;5.60;;;18.90;84.80;;;;;;5103663;28;20020;-79
2023/07/02 08:58:23;;;;;;;15.02;5.00;;;18.80;84.70;;;;;;5103352;28;20429;-78
2023/07/02 09:01:30;;;;;;;14.88;4.70;;;19.00;85.40;;;;;;5110076;28;20028;-79
2023/07/02 09:04:01;;;;;;;14.18;4.93;;;19.10;86.50;;;;;;5045096;28;20057;-79
2023/07/02 09:06:27;;;;;;;12.95;4.93;;;19.30;85.10;;;;;;5044666;28;20034;-78
2023/07/02 09:09:02;;;;;;;14.68;5.18;;;19.40;84.90;;;;;;5072214;28;20032;-78
2023/07/02 09:11:28;;;;;;;11.52;4.38;;;19.40;85.00;;;;;;5100619;28;20035;-79
2023/07/02 09:13:58;;;;;;;15.15;4.55;;;19.30;84.90;;;;;;5100633;28;20032;-79
2023/07/02 09:16:29;;;;;;;15.75;4.78;;;19.30;84.20;;;;;;5103425;28;20034;-78
2023/07/02 09:19:00;;;;;;;12.57;5.05;;;19.30;83.80;;;;;;5108885;28;20444;-79
2023/07/02 09:21:46;;;;;;;14.55;4.80;;;19.40;84.20;;;;;;5109066;28;20035;-79
2023/07/02 09:24:22;;;;;;;10.05;4.13;;;19.60;83.90;;;;;;5112848;28;20087;-80
2023/07/02 09:26:49;;;;;;;10.52;4.40;;;19.80;81.00;;;;;;5110099;28;20035;-80
2023/07/02 09:29:23;;;;;;;9.55;3.95;;;19.80;77.60;;;;;;5107421;28;20034;-80
2023/07/02 09:31:49;;;;;;;11.82;3.90;;;19.70;76.10;;;;;;5104175;28;20352;-79
2023/07/02 09:34:16;;;;;;;9.57;3.47;;;19.70;76.60;;;;;;5106535;28;20088;-79
2023/07/02 09:36:43;;;;;;;11.45;3.83;;;19.70;75.40;;;;;;5110717;28;20249;-78
2023/07/02 09:39:13;;;;;;;9.88;3.35;;;19.80;75.70;;;;;;5110341;28;20027;-79
2023/07/02 09:41:42;;;;;;;10.77;3.85;;;19.90;75.60;;;;;;5106400;28;20047;-78
2023/07/02 09:44:10;;;;;;;8.95;3.25;;;19.90;74.50;;;;;;5090343;28;20076;-78
2023/07/02 09:46:47;;;;;;;7.18;3.15;;;20.00;73.90;;;;;;5106966;28;20031;-78
2023/07/02 09:49:16;;;;;;;8.90;3.33;;;20.10;73.40;;;;;;5104069;28;20051;-78
2023/07/02 09:51:42;;;;;;;7.93;2.90;;;20.30;69.80;;;;;;5102901;28;20238;-79
2023/07/02 09:54:09;;;;;;;9.48;3.65;;;20.30;68.40;;;;;;5101624;28;20035;-79
2023/07/02 09:56:34;;;;;;;8.23;3.30;;;20.40;67.20;;;;;;5103237;28;20036;-78
2023/07/02 09:59:00;;;;;;;9.00;3.50;;;20.40;67.70;;;;;;5103271;28;20117;-79
2023/07/02 10:01:26;;;;;;;11.20;3.05;;;20.40;67.90;;;;;;5103723;28;20055;-78
2023/07/02 10:03:51;;;;;;;10.63;3.38;;;20.30;67.80;;;;;;5107126;28;20040;-80
2023/07/02 10:06:17;;;;;;;8.20;3.22;;;20.40;68.40;;;;;;5102892;28;20032;-79
2023/07/02 10:08:56;;;;;;;8.55;3.85;;;20.30;67.40;;;;;;5101006;28;20032;-80
2023/07/02 10:11:34;;;;;;;9.00;3.50;;;20.20;67.00;;;;;;5101627;28;20032;-80
2023/07/02 10:14:00;;;;;;;10.02;3.25;;;20.30;67.00;;;;;;5096876;28;20035;-80
2023/07/02 10:16:27;;;;;;;6.80;2.67;;;20.50;67.80;;;;;;5099121;28;20029;-80
2023/07/02 10:18:54;;;;;;;9.68;3.17;;;20.60;65.20;;;;;;5100973;28;20491;-80
2023/07/02 10:21:20;;;;;;;8.98;2.85;;;20.60;65.20;;;;;;5101437;28;20131;-81
2023/07/02 10:23:46;;;;;;;5.65;2.78;;;20.80;66.50;;;;;;5102291;28;20440;-79
2023/07/02 10:26:16;;;;;;;6.85;3.70;;;21.00;65.80;;;;;;5103937;28;20049;-80
2023/07/02 10:28:42;;;;;;;5.82;2.78;;;21.00;65.50;;;;;;5101775;28;20460;-81
2023/07/02 10:31:26;;;;;;;7.88;2.88;;;21.20;65.80;;;;;;5082629;28;20349;-80
2023/07/02 10:33:52;;;;;;;6.90;3.08;;;21.40;65.80;;;;;;5096786;28;20032;-80
2023/07/02 10:36:23;;;;;;;8.60;3.03;;;21.60;66.40;;;;;;5101217;28;20024;-79
2023/07/02 10:38:49;;;;;;;8.32;2.83;;;21.70;63.80;;;;;;5099738;28;20052;-80
2023/07/02 10:41:27;;;;;;;5.25;2.55;;;21.80;63.80;;;;;;5105619;28;20066;-80
2023/07/02 10:43:53;;;;;;;6.68;3.00;;;21.80;63.00;;;;;;5107482;28;20396;-79
2023/07/02 10:46:26;;;;;;;9.45;2.95;;;21.60;61.90;;;;;;5111532;28;20016;-79
2023/07/02 10:48:53;;;;;;;8.27;2.60;;;21.40;62.60;;;;;;5108553;28;20058;-79
2023/07/02 10:51:19;;;;;;;8.68;2.70;;;21.40;63.10;;;;;;5108839;28;20084;-79
2023/07/02 10:53:59;;;;;;;8.20;2.88;;;21.40;63.20;;;;;;5106868;28;20020;-80
2023/07/02 10:56:27;;;;;;;6.97;2.70;;;21.20;62.30;;;;;;5105253;28;20119;-81
2023/07/02 10:58:54;;;;;;;5.47;2.78;;;21.00;62.90;;;;;;5104770;28;20071;-80
2023/07/02 11:01:31;;;;;;;7.65;2.95;;;20.90;63.90;;;;;;5107633;28;20020;-81
2023/07/02 11:04:02;;;;;;;8.15;2.92;;;21.00;63.40;;;;;;5103924;28;20050;-81
2023/07/02 11:06:30;;;;;;;7.70;2.80;;;21.00;63.30;;;;;;5108715;28;20024;-80
2023/07/02 11:08:57;;;;;;;7.35;2.50;;;21.20;64.20;;;;;;5101969;28;20036;-81
2023/07/02 11:11:23;;;;;;;6.53;2.92;;;21.40;64.10;;;;;;5104777;28;20036;-80
2023/07/02 11:13:51;;;;;;;6.57;2.92;;;21.40;62.80;;;;;;5104160;28;20031;-80
2023/07/02 11:16:25;;;;;;;7.32;3.42;;;21.40;62.10;;;;;;5106707;28;20077;-80
2023/07/02 11:19:08;;;;;;;7.78;2.83;;;21.40;61.80;;;;;;5106092;28;20036;-81
2023/07/02 11:21:34;;;;;;;6.70;2.65;;;21.40;62.50;;;;;;5103198;28;20047;-80
2023/07/02 11:24:05;;;;;;;7.57;2.78;;;21.50;62.60;;;;;;5105230;28;20391;-79
2023/07/02 11:26:38;;;;;;;7.25;3.22;;;21.70;61.40;;;;;;5105099;28;20027;-80
2023/07/02 11:29:07;;;;;;;6.60;2.80;;;21.60;60.70;;;;;;5104090;28;20080;-79
2023/07/02 11:31:33;;;;;;;6.22;2.70;;;21.70;60.50;;;;;;5105663;28;20032;-80
2023/07/02 11:33:59;;;;;;;7.30;2.65;;;21.60;59.60;;;;;;5108583;28;20077;-80
2023/07/02 11:36:25;;;;;;;7.10;2.33;;;21.50;60.20;;;;;;5107069;28;20055;-80
2023/07/02 11:38:52;;;;;;;9.60;3.00;;;21.60;62.10;;;;;;5106473;28;20028;-80
2023/07/02 11:41:18;;;;;;;5.70;2.50;;;21.70;60.60;;;;;;5108293;28;20435;-80
2023/07/02 11:43:44;;;;;;;7.00;2.72;;;21.70;60.50;;;;;;5107400;28;20364;-78
2023/07/02 11:46:09;;;;;;;5.45;2.47;;;21.70;60.60;;;;;;5105611;28;20534;-80
2023/07/02 11:48:35;;;;;;;5.70;2.58;;;21.60;59.80;;;;;;5104809;28;20107;-80
2023/07/02 11:51:01;;;;;;;4.43;2.30;;;21.50;59.80;;;;;;5107710;28;20028;-81
2023/07/02 11:53:26;;;;;;;6.53;2.45;;;21.60;60.40;;;;;;5104389;28;20024;-80
2023/07/02 11:55:52;;;;;;;7.45;2.95;;;21.50;59.50;;;;;;5107343;28;20043;-80
2023/07/02 11:58:18;;;;;;;4.80;2.42;;;21.60;59.50;;;;;;5104990;28;20025;-80
2023/07/02 12:00:43;;;;;;;6.00;2.60;;;21.70;59.00;;;;;;5105318;28;20028;-79
2023/07/02 12:03:10;;;;;;;4.70;1.90;;;21.80;59.40;;;;;;5111066;28;20079;-80
2023/07/02 12:05:35;;;;;;;4.65;2.50;;;21.90;59.30;;;;;;5111906;28;20028;-80
2023/07/02 12:08:02;;;;;;;5.50;2.38;;;21.90;58.40;;;;;;5112463;28;20133;-79
2023/07/02 12:10:28;;;;;;;7.10;2.13;;;22.10;58.10;;;;;;5113535;28;20027;-79
2023/07/02 12:12:53;;;;;;;4.57;2.38;;;22.10;58.00;;;;;;5112784;28;20044;-79
2023/07/02 12:15:19;;;;;;;6.68;2.78;;;22.10;58.50;;;;;;5112386;28;20038;-78
2023/07/02 12:17:45;;;;;;;5.28;2.42;;;22.20;57.90;;;;;;5112994;28;20032;-80
2023/07/02 12:20:11;;;;;;;5.30;2.20;;;22.30;58.10;;;;;;5110716;28;20441;-81
2023/07/02 12:22:36;;;;;;;4.30;2.20;;;22.20;57.40;;;;;;5109308;28;20476;-80
2023/07/02 12:25:02;;;;;;;7.20;2.50;;;22.00;57.10;;;;;;5110810;28;20047;-80
2023/07/02 12:27:28;;;;;;;7.65;2.83;;;22.10;57.00;;;;;;5090311;28;20030;-80
2023/07/02 12:29:53;;;;;;;4.38;2.15;;;22.10;57.00;;;;;;5109171;28;20028;-80
2023/07/02 12:32:20;;;;;;;9.63;2.65;;;22.20;56.50;;;;;;5109408;28;20091;-80
2023/07/02 12:34:46;;;;;;;6.90;3.03;;;22.30;57.30;;;;;;5107992;28;20476;-80
2023/07/02 12:37:17;;;;;;;5.32;2.67;;;22.40;57.30;;;;;;5107879;28;20032;-80
2023/07/02 12:39:42;;;;;;;5.50;2.50;;;22.50;56.90;;;;;;5106106;28;20040;-80